createdAt,value
2018-09-02T00:00:43.887Z,71.02
2018-09-02T00:03:12.726Z,71.01
2018-09-02T00:05:41.593Z,71.63
2018-09-02T00:08:10.488Z,71.54
2018-09-02T00:10:39.259Z,71.07
2018-09-02T00:13:08.077Z,71.54
2018-09-02T00:15:36.874Z,71.51
2018-09-02T00:18:05.780Z,71.38
2018-09-02T00:20:34.668Z,72.05
2018-09-02T00:23:03.398Z,71.51
2018-09-02T00:25:32.220Z,72.21
2018-09-02T00:28:01.142Z,72.29
2018-09-02T00:30:29.975Z,71.81
2018-09-02T00:32:58.763Z,72.12
2018-09-02T00:35:27.534Z,73.19
2018-09-02T00:37:56.282Z,72.65
2018-09-02T00:40:25.040Z,72.75
2018-09-02T00:42:53.887Z,72.55
2018-09-02T00:45:22.608Z,72.05
2018-09-02T00:47:51.302Z,72.88
2018-09-02T00:50:19.986Z,72.21
2018-09-02T00:52:48.711Z,73.36
2018-09-02T00:55:17.432Z,72.81
2018-09-02T00:57:46.127Z,72.41
2018-09-02T01:00:14.911Z,71.86
2018-09-02T01:02:43.699Z,72.10
2018-09-02T01:05:12.602Z,72.13
2018-09-02T01:07:41.318Z,70.98
2018-09-02T01:10:10.096Z,71.93
2018-09-02T01:12:38.819Z,71.11
2018-09-02T01:15:07.706Z,72.10
2018-09-02T01:17:36.436Z,70.49
2018-09-02T01:20:05.409Z,71.03
2018-09-02T01:22:34.216Z,70.10
2018-09-02T01:25:02.951Z,70.61
2018-09-02T01:27:31.604Z,70.39
2018-09-02T01:30:00.284Z,70.25
2018-09-02T01:32:29.135Z,70.76
2018-09-02T01:34:57.876Z,70.56
2018-09-02T01:37:26.628Z,69.92
2018-09-02T01:39:55.519Z,70.25
2018-09-02T01:42:24.267Z,70.03
2018-09-02T01:44:52.979Z,71.00
2018-09-02T01:47:21.736Z,71.23
2018-09-02T01:49:50.474Z,70.26
2018-09-02T01:52:19.159Z,70.86
2018-09-02T01:54:47.945Z,70.49
2018-09-02T01:57:16.959Z,69.33
2018-09-02T01:59:45.741Z,69.15
2018-09-02T02:02:14.532Z,69.69
2018-09-02T02:04:43.713Z,69.04
2018-09-02T02:07:13.671Z,70.37
2018-09-02T02:09:42.871Z,69.32
2018-09-02T02:12:11.563Z,69.65
2018-09-02T02:14:40.240Z,70.25
2018-09-02T02:17:09.114Z,70.67
2018-09-02T02:19:37.866Z,70.07
2018-09-02T02:22:06.600Z,70.03
2018-09-02T02:24:35.404Z,69.76
2018-09-02T02:27:04.299Z,70.70
2018-09-02T02:29:33.123Z,70.02
2018-09-02T02:32:01.871Z,70.98
2018-09-02T02:34:30.617Z,71.13
2018-09-02T02:36:59.342Z,71.04
2018-09-02T02:39:28.128Z,72.52
2018-09-02T02:41:56.909Z,71.74
2018-09-02T02:44:25.676Z,71.91
2018-09-02T02:46:54.491Z,71.61
2018-09-02T02:49:23.200Z,72.04
2018-09-02T02:51:51.912Z,72.19
2018-09-02T02:54:20.708Z,73.25
2018-09-02T02:56:49.445Z,73.54
2018-09-02T02:59:18.179Z,73.28
2018-09-02T03:01:46.973Z,74.10
2018-09-02T03:04:15.670Z,73.22
2018-09-02T03:06:44.385Z,73.56
2018-09-02T03:09:13.518Z,73.47
2018-09-02T03:11:42.604Z,72.84
2018-09-02T03:14:11.856Z,73.71
2018-09-02T03:16:40.774Z,73.43
2018-09-02T03:19:10.035Z,73.27
2018-09-02T03:21:38.854Z,74.43
2018-09-02T03:24:07.629Z,74.38
2018-09-02T03:26:36.441Z,73.84
2018-09-02T03:29:05.163Z,73.90
2018-09-02T03:31:33.987Z,73.89
2018-09-02T03:34:02.719Z,73.80
2018-09-02T03:36:31.462Z,73.94
2018-09-02T03:39:00.182Z,74.93
2018-09-02T03:41:28.914Z,74.93
2018-09-02T03:43:57.863Z,75.13
2018-09-02T03:46:26.576Z,74.25
2018-09-02T03:48:55.434Z,74.30
2018-09-02T03:51:24.276Z,74.73
2018-09-02T03:53:53.025Z,75.23
2018-09-02T03:56:21.720Z,73.87
2018-09-02T03:58:50.523Z,74.81
2018-09-02T04:01:19.265Z,74.28
2018-09-02T04:03:48.022Z,74.51
2018-09-02T04:06:16.815Z,74.79
2018-09-02T04:08:45.609Z,74.38
2018-09-02T04:11:14.457Z,73.32
2018-09-02T04:13:43.099Z,73.35
2018-09-02T04:16:11.994Z,72.41
2018-09-02T04:18:40.710Z,72.79
2018-09-02T04:21:09.466Z,72.33
2018-09-02T04:23:38.203Z,72.09
2018-09-02T04:26:06.952Z,71.17
2018-09-02T04:28:35.785Z,71.29
2018-09-02T04:31:04.505Z,70.98
2018-09-02T04:33:33.236Z,69.90
2018-09-02T04:36:01.943Z,70.27
2018-09-02T04:38:30.672Z,69.42
2018-09-02T04:40:59.391Z,68.23
2018-09-02T04:43:28.076Z,67.55
2018-09-02T04:45:56.813Z,67.81
2018-09-02T04:48:25.527Z,67.57
2018-09-02T04:50:54.255Z,67.28
2018-09-02T04:53:22.958Z,66.93
2018-09-02T04:55:51.693Z,66.70
2018-09-02T04:58:20.456Z,65.86
2018-09-02T05:00:49.249Z,65.64
2018-09-02T05:03:17.985Z,66.15
2018-09-02T05:05:46.746Z,65.57
2018-09-02T05:08:15.573Z,65.02
2018-09-02T05:10:44.306Z,63.78
2018-09-02T05:13:13.211Z,63.68
2018-09-02T05:15:41.907Z,62.93
2018-09-02T05:18:10.730Z,62.27
2018-09-02T05:20:39.391Z,61.15
2018-09-02T05:23:08.120Z,60.19
2018-09-02T05:25:36.958Z,59.75
2018-09-02T05:28:06.721Z,58.57
2018-09-02T05:30:35.663Z,58.28
2018-09-02T05:33:04.603Z,57.48
2018-09-02T05:35:33.388Z,56.21
2018-09-02T05:38:02.159Z,56.22
2018-09-02T05:40:30.954Z,55.99
2018-09-02T05:42:59.811Z,54.71
2018-09-02T05:45:28.615Z,54.50
2018-09-02T05:47:57.298Z,54.11
2018-09-02T05:50:26.193Z,52.23
2018-09-02T05:52:54.879Z,52.96
2018-09-02T05:55:23.603Z,53.15
2018-09-02T05:57:52.327Z,52.95
2018-09-02T06:00:21.072Z,51.46
2018-09-02T06:02:49.960Z,50.65
2018-09-02T06:05:26.144Z,50.67
2018-09-02T06:07:56.143Z,50.76
2018-09-02T06:10:25.190Z,51.61
2018-09-02T06:12:53.993Z,50.20
2018-09-02T06:15:22.696Z,49.32
2018-09-02T06:17:51.415Z,50.92
2018-09-02T06:20:20.172Z,50.20
2018-09-02T06:22:48.964Z,50.26
2018-09-02T06:25:17.776Z,49.74
2018-09-02T06:27:46.833Z,49.38
2018-09-02T06:30:15.820Z,48.80
2018-09-02T06:32:44.686Z,48.93
2018-09-02T06:35:13.956Z,48.24
2018-09-02T06:37:42.766Z,48.73
2018-09-02T06:40:11.537Z,47.48
2018-09-02T06:42:40.353Z,45.96
2018-09-02T06:45:09.207Z,44.67
2018-09-02T06:47:38.250Z,45.55
2018-09-02T06:50:07.400Z,45.58
2018-09-02T06:52:36.270Z,44.51
2018-09-02T06:55:05.210Z,45.56
2018-09-02T06:57:33.985Z,44.03
2018-09-02T07:00:02.718Z,43.09
2018-09-02T07:02:31.448Z,44.02
2018-09-02T07:05:00.346Z,43.47
2018-09-02T07:07:29.200Z,42.12
2018-09-02T07:09:57.855Z,41.18
2018-09-02T07:12:26.631Z,41.22
2018-09-02T07:14:55.484Z,41.36
2018-09-02T07:17:24.292Z,41.22
2018-09-02T07:19:53.148Z,40.84
2018-09-02T07:22:21.965Z,41.19
2018-09-02T07:24:50.805Z,41.24
2018-09-02T07:27:19.577Z,42.11
2018-09-02T07:29:48.248Z,41.83
2018-09-02T07:32:17.153Z,41.00
2018-09-02T07:34:45.961Z,41.01
2018-09-02T07:37:14.773Z,39.19
2018-09-02T07:39:43.510Z,40.93
2018-09-02T07:42:12.347Z,40.80
2018-09-02T07:44:41.324Z,38.84
2018-09-02T07:47:10.006Z,38.33
2018-09-02T07:49:38.788Z,39.41
2018-09-02T07:52:07.625Z,38.58
2018-09-02T07:54:36.462Z,37.90
2018-09-02T07:57:05.224Z,37.03
2018-09-02T07:59:34.067Z,37.11
2018-09-02T08:02:02.975Z,37.55
2018-09-02T08:04:31.713Z,36.55
2018-09-02T08:07:00.559Z,36.45
2018-09-02T08:09:29.413Z,35.07
2018-09-02T08:11:58.215Z,35.58
2018-09-02T08:14:27.040Z,33.71
2018-09-02T08:16:55.838Z,32.71
2018-09-02T08:19:24.631Z,33.40
2018-09-02T08:21:53.582Z,33.70
2018-09-02T08:24:22.446Z,32.38
2018-09-02T08:26:51.126Z,32.73
2018-09-02T08:29:19.942Z,33.81
2018-09-02T08:31:48.748Z,34.38
2018-09-02T08:34:17.495Z,33.09
2018-09-02T08:36:46.316Z,33.48
2018-09-02T08:39:15.322Z,33.18
2018-09-02T08:41:44.079Z,32.29
2018-09-02T08:44:13.090Z,32.31
2018-09-02T08:46:41.898Z,32.45
2018-09-02T08:49:10.746Z,32.40
2018-09-02T08:51:39.632Z,32.76
2018-09-02T08:54:08.884Z,31.63
2018-09-02T08:56:37.734Z,32.03
2018-09-02T08:59:06.465Z,32.85
2018-09-02T09:01:35.402Z,31.67
2018-09-02T09:04:04.132Z,31.93
2018-09-02T09:06:32.899Z,31.96
2018-09-02T09:09:01.802Z,31.00
2018-09-02T09:11:30.436Z,31.85
2018-09-02T09:13:59.170Z,28.95
2018-09-02T09:16:28.073Z,27.77
2018-09-02T09:18:56.732Z,26.95
2018-09-02T09:21:25.563Z,28.63
2018-09-02T09:23:54.305Z,28.75
2018-09-02T09:26:23.055Z,27.21
2018-09-02T09:28:51.763Z,25.69
2018-09-02T09:31:20.535Z,25.67
2018-09-02T09:33:49.262Z,25.95
2018-09-02T09:36:18.059Z,25.48
2018-09-02T09:38:46.902Z,24.82
2018-09-02T09:41:15.580Z,24.70
2018-09-02T09:43:44.226Z,24.93
2018-09-02T09:46:13.003Z,24.78
2018-09-02T09:48:41.686Z,25.03
2018-09-02T09:51:10.347Z,24.26
2018-09-02T09:53:39.053Z,24.76
2018-09-02T09:56:07.778Z,24.82
2018-09-02T09:58:36.417Z,23.96
2018-09-02T10:01:05.155Z,23.57
2018-09-02T10:03:33.940Z,24.08
2018-09-02T10:06:02.636Z,23.23
2018-09-02T10:08:31.383Z,23.75
2018-09-02T10:11:00.204Z,23.17
2018-09-02T10:13:29.558Z,23.55
2018-09-02T10:15:58.332Z,23.09
2018-09-02T10:18:27.135Z,23.29
2018-09-02T10:20:56.693Z,23.47
2018-09-02T10:23:25.525Z,23.56
2018-09-02T10:25:54.325Z,23.56
2018-09-02T10:28:23.090Z,22.83
2018-09-02T10:30:51.904Z,22.13
2018-09-02T10:33:20.806Z,22.72
2018-09-02T10:35:49.550Z,22.67
2018-09-02T10:38:18.258Z,22.49
2018-09-02T10:40:47.036Z,22.34
2018-09-02T10:43:15.812Z,22.15
2018-09-02T10:45:44.546Z,20.93
2018-09-02T10:48:13.299Z,20.61
2018-09-02T10:50:42.072Z,20.74
2018-09-02T10:53:10.866Z,21.05
2018-09-02T10:55:39.922Z,21.91
2018-09-02T10:58:08.607Z,21.11
2018-09-02T11:00:37.412Z,20.88
2018-09-02T11:03:06.402Z,21.85
2018-09-02T11:05:35.166Z,20.90
2018-09-02T11:08:04.044Z,19.79
2018-09-02T11:10:32.710Z,20.32
2018-09-02T11:13:01.448Z,19.93
2018-09-02T11:15:30.150Z,19.07
2018-09-02T11:17:59.010Z,19.36
2018-09-02T11:20:27.728Z,19.90
2018-09-02T11:22:56.418Z,20.28
2018-09-02T11:25:25.140Z,19.59
2018-09-02T11:27:53.825Z,19.76
2018-09-02T11:30:22.571Z,20.49
2018-09-02T11:32:51.326Z,19.41
2018-09-02T11:35:20.066Z,19.38
2018-09-02T11:37:48.842Z,18.67
2018-09-02T11:40:17.517Z,19.47
2018-09-02T11:42:46.195Z,20.07
2018-09-02T11:45:14.859Z,19.99
2018-09-02T11:47:43.568Z,20.55
2018-09-02T11:50:12.291Z,20.43
2018-09-02T11:52:40.963Z,20.58
2018-09-02T11:55:09.766Z,20.10
2018-09-02T11:57:38.523Z,20.33
2018-09-02T12:00:07.503Z,19.78
2018-09-02T12:02:36.222Z,21.04
2018-09-02T12:05:05.035Z,19.74
2018-09-02T12:07:33.719Z,21.63
2018-09-02T12:10:02.465Z,22.94
2018-09-02T12:12:31.287Z,22.72
2018-09-02T12:15:00.844Z,22.63
2018-09-02T12:17:29.491Z,22.03
2018-09-02T12:19:58.185Z,22.84
2018-09-02T12:22:26.882Z,23.09
2018-09-02T12:24:55.550Z,23.03
2018-09-02T12:27:24.293Z,21.96
2018-09-02T12:29:53.049Z,21.57
2018-09-02T12:32:21.721Z,21.88
2018-09-02T12:34:50.385Z,22.65
2018-09-02T12:37:19.053Z,22.01
2018-09-02T12:39:47.697Z,21.47
2018-09-02T12:42:16.415Z,21.21
2018-09-02T12:44:45.112Z,21.26
2018-09-02T12:47:14.041Z,21.80
2018-09-02T12:49:42.784Z,20.80
2018-09-02T12:52:11.481Z,20.88
2018-09-02T12:54:40.235Z,21.89
2018-09-02T12:57:08.925Z,20.65
2018-09-02T12:59:37.724Z,21.13
2018-09-02T13:02:06.603Z,21.75
2018-09-02T13:04:35.474Z,21.92
2018-09-02T13:07:04.174Z,22.45
2018-09-02T13:09:33.012Z,23.25
2018-09-02T13:12:01.753Z,23.34
2018-09-02T13:14:30.555Z,23.17
2018-09-02T13:16:59.342Z,22.91
2018-09-02T13:19:28.064Z,22.97
2018-09-02T13:21:56.828Z,23.53
2018-09-02T13:24:25.577Z,23.58
2018-09-02T13:26:54.210Z,24.48
2018-09-02T13:29:23.022Z,23.12
2018-09-02T13:31:51.884Z,23.80
2018-09-02T13:34:20.605Z,23.42
2018-09-02T13:36:49.430Z,23.64
2018-09-02T13:39:18.172Z,24.08
2018-09-02T13:41:47.055Z,25.43
2018-09-02T13:44:15.809Z,24.27
2018-09-02T13:46:44.555Z,25.15
2018-09-02T13:49:13.565Z,25.04
2018-09-02T13:51:42.786Z,23.94
2018-09-02T13:54:11.640Z,24.77
2018-09-02T13:56:41.102Z,25.03
2018-09-02T13:59:09.751Z,25.08
2018-09-02T14:01:38.780Z,25.37
2018-09-02T14:04:07.697Z,24.79
2018-09-02T14:06:36.515Z,24.72
2018-09-02T14:09:06.326Z,25.57
2018-09-02T14:11:35.085Z,25.75
2018-09-02T14:14:03.882Z,25.08
2018-09-02T14:16:32.663Z,25.40
2018-09-02T14:19:01.440Z,25.11
2018-09-02T14:21:30.218Z,25.50
2018-09-02T14:23:58.898Z,25.33
2018-09-02T14:26:27.774Z,24.90
2018-09-02T14:28:56.491Z,25.57
2018-09-02T14:31:25.191Z,25.96
2018-09-02T14:33:53.962Z,25.45
2018-09-02T14:36:22.704Z,25.87
2018-09-02T14:38:51.635Z,25.40
2018-09-02T14:41:20.423Z,25.95
2018-09-02T14:43:49.408Z,25.71
2018-09-02T14:46:18.141Z,26.15
2018-09-02T14:48:46.944Z,26.47
2018-09-02T14:51:15.720Z,25.81
2018-09-02T14:53:44.397Z,26.37
2018-09-02T14:56:13.195Z,25.56
2018-09-02T14:58:41.965Z,25.55
2018-09-02T15:01:10.721Z,26.57
2018-09-02T15:03:39.411Z,25.47
2018-09-02T15:06:08.227Z,26.50
2018-09-02T15:08:36.918Z,26.51
2018-09-02T15:11:05.951Z,25.84
2018-09-02T15:13:34.746Z,25.71
2018-09-02T15:16:04.571Z,26.86
2018-09-02T15:18:33.500Z,26.17
2018-09-02T15:21:02.354Z,26.21
2018-09-02T15:23:31.144Z,26.79
2018-09-02T15:25:59.843Z,27.41
2018-09-02T15:28:28.490Z,26.81
2018-09-02T15:30:57.306Z,27.37
2018-09-02T15:33:26.142Z,27.47
2018-09-02T15:35:54.842Z,26.41
2018-09-02T15:38:23.567Z,27.51
2018-09-02T15:40:52.289Z,27.57
2018-09-02T15:43:20.955Z,27.42
2018-09-02T15:45:49.647Z,27.70
2018-09-02T15:48:18.506Z,27.27
2018-09-02T15:50:47.257Z,28.34
2018-09-02T15:53:16.023Z,28.21
2018-09-02T15:55:44.760Z,27.89
2018-09-02T15:58:13.553Z,28.36
2018-09-02T16:00:42.698Z,27.27
2018-09-02T16:03:21.568Z,29.13
2018-09-02T16:05:55.733Z,28.97
2018-09-02T16:08:28.030Z,30.91
2018-09-02T16:10:58.839Z,31.12
2018-09-02T16:13:27.554Z,31.37
2018-09-02T16:15:56.503Z,30.42
2018-09-02T16:18:25.242Z,30.80
2018-09-02T16:20:53.984Z,31.17
2018-09-02T16:23:22.723Z,31.60
2018-09-02T16:25:51.543Z,31.01
2018-09-02T16:28:20.326Z,32.25
2018-09-02T16:30:49.123Z,32.33
2018-09-02T16:33:17.782Z,32.52
2018-09-02T16:35:46.723Z,32.80
2018-09-02T16:38:15.499Z,31.97
2018-09-02T16:40:44.210Z,32.37
2018-09-02T16:43:12.897Z,33.50
2018-09-02T16:45:44.018Z,33.72
2018-09-02T16:48:12.787Z,33.36
2018-09-02T16:50:41.558Z,34.18
2018-09-02T16:53:10.439Z,33.64
2018-09-02T16:55:39.302Z,34.83
2018-09-02T16:58:08.059Z,35.26
2018-09-02T17:00:36.946Z,34.64
2018-09-02T17:03:05.690Z,35.34
2018-09-02T17:05:34.374Z,35.66
2018-09-02T17:08:03.063Z,36.03
2018-09-02T17:10:31.822Z,35.37
2018-09-02T17:13:00.625Z,36.08
2018-09-02T17:15:29.354Z,35.76
2018-09-02T17:17:58.116Z,35.87
2018-09-02T17:20:36.359Z,36.26
2018-09-02T17:23:10.177Z,35.83
2018-09-02T17:25:38.963Z,36.79
2018-09-02T17:28:07.846Z,36.99
2018-09-02T17:30:37.278Z,37.20
2018-09-02T17:33:06.870Z,37.21
2018-09-02T17:35:35.565Z,37.24
2018-09-02T17:38:04.309Z,37.22
2018-09-02T17:40:33.355Z,37.42
2018-09-02T17:43:02.522Z,37.65
2018-09-02T17:45:31.310Z,37.54
2018-09-02T17:48:00.047Z,37.55
2018-09-02T17:50:28.778Z,37.34
2018-09-02T17:52:57.675Z,37.44
2018-09-02T17:55:26.413Z,37.64
2018-09-02T17:57:55.241Z,37.64
2018-09-02T18:00:27.195Z,38.13
2018-09-02T18:02:56.042Z,38.34
2018-09-02T18:05:24.926Z,38.12
2018-09-02T18:07:53.635Z,38.21
2018-09-02T18:10:22.347Z,38.42
2018-09-02T18:12:51.095Z,38.77
2018-09-02T18:15:19.856Z,39.14
2018-09-02T18:17:48.551Z,39.25
2018-09-02T18:20:17.280Z,39.45
2018-09-02T18:22:46.010Z,39.51
2018-09-02T18:25:14.780Z,39.71
2018-09-02T18:27:45.801Z,39.92
2018-09-02T18:30:14.575Z,40.16
2018-09-02T18:32:43.306Z,40.27
2018-09-02T18:35:12.111Z,40.55
2018-09-02T18:37:40.830Z,40.74
2018-09-02T18:40:09.513Z,40.87
2018-09-02T18:42:38.319Z,41.39
2018-09-02T18:45:07.291Z,41.83
2018-09-02T18:47:35.966Z,41.91
2018-09-02T18:50:04.893Z,41.09
2018-09-02T18:52:33.694Z,41.96
2018-09-02T18:55:02.419Z,41.47
2018-09-02T18:57:31.083Z,42.42
2018-09-02T18:59:59.756Z,42.31
2018-09-02T19:02:28.478Z,41.92
2018-09-02T19:04:57.330Z,42.83
2018-09-02T19:07:26.066Z,42.17
2018-09-02T19:09:54.898Z,42.25
2018-09-02T19:12:23.622Z,42.47
2018-09-02T19:14:52.391Z,42.57
2018-09-02T19:17:21.117Z,43.52
2018-09-02T19:19:49.797Z,43.56
2018-09-02T19:22:18.598Z,43.14
2018-09-02T19:24:47.269Z,43.85
2018-09-02T19:27:15.958Z,43.11
2018-09-02T19:29:44.707Z,43.24
2018-09-02T19:32:13.565Z,43.50
2018-09-02T19:34:42.334Z,42.72
2018-09-02T19:37:11.053Z,43.56
2018-09-02T19:39:39.774Z,43.61
2018-09-02T19:42:08.561Z,43.54
2018-09-02T19:44:37.292Z,43.58
2018-09-02T19:47:06.140Z,43.91
2018-09-02T19:49:34.973Z,43.47
2018-09-02T19:52:03.742Z,43.25
2018-09-02T19:54:32.382Z,42.81
2018-09-02T19:57:01.125Z,42.80
2018-09-02T19:59:29.985Z,42.74
2018-09-02T20:01:58.811Z,42.15
2018-09-02T20:04:27.558Z,42.80
2018-09-02T20:06:56.280Z,42.37
2018-09-02T20:09:24.913Z,43.19
2018-09-02T20:11:53.551Z,42.98
2018-09-02T20:14:22.250Z,42.49
2018-09-02T20:16:50.953Z,43.34
2018-09-02T20:19:19.731Z,42.89
2018-09-02T20:21:48.471Z,42.83
2018-09-02T20:24:17.233Z,43.04
2018-09-02T20:26:45.993Z,43.30
2018-09-02T20:29:14.684Z,43.35
2018-09-02T20:31:43.414Z,44.46
2018-09-02T20:34:12.174Z,44.30
2018-09-02T20:36:40.950Z,44.59
2018-09-02T20:39:09.919Z,44.59
2018-09-02T20:41:38.578Z,44.09
2018-09-02T20:44:07.658Z,44.20
2018-09-02T20:46:36.528Z,44.90
2018-09-02T20:49:05.471Z,43.82
2018-09-02T20:51:34.135Z,44.10
2018-09-02T20:54:02.858Z,43.92
2018-09-02T20:56:31.522Z,44.27
2018-09-02T20:59:00.243Z,44.06
2018-09-02T21:01:29.012Z,44.31
2018-09-02T21:03:57.802Z,44.50
2018-09-02T21:06:26.476Z,44.03
2018-09-02T21:08:55.328Z,44.79
2018-09-02T21:11:24.175Z,45.40
2018-09-02T21:13:52.940Z,45.09
2018-09-02T21:16:21.686Z,44.98
2018-09-02T21:18:50.422Z,45.36
2018-09-02T21:21:19.098Z,45.21
2018-09-02T21:23:47.795Z,45.05
2018-09-02T21:26:16.547Z,45.97
2018-09-02T21:28:45.337Z,46.09
2018-09-02T21:31:14.028Z,45.66
2018-09-02T21:33:42.780Z,46.16
2018-09-02T21:36:11.411Z,46.35
2018-09-02T21:38:40.131Z,46.18
2018-09-02T21:41:08.802Z,47.19
2018-09-02T21:43:37.601Z,47.41
2018-09-02T21:46:06.546Z,47.50
2018-09-02T21:48:35.246Z,47.28
2018-09-02T21:51:04.585Z,47.56
2018-09-02T21:53:33.383Z,48.19
2018-09-02T21:56:02.267Z,48.96
2018-09-02T21:58:31.099Z,48.88
2018-09-02T22:00:59.890Z,49.22
2018-09-02T22:03:28.785Z,49.14
2018-09-02T22:05:57.583Z,50.12
2018-09-02T22:08:26.401Z,50.39
2018-09-02T22:10:55.204Z,49.88
2018-09-02T22:13:23.975Z,50.34
2018-09-02T22:15:52.737Z,50.45
2018-09-02T22:18:21.437Z,50.46
2018-09-02T22:20:50.163Z,50.79
2018-09-02T22:23:19.026Z,50.68
2018-09-02T22:25:48.056Z,50.89
2018-09-02T22:28:16.844Z,51.86
2018-09-02T22:30:45.557Z,51.73
2018-09-02T22:33:14.305Z,51.62
2018-09-02T22:35:43.093Z,52.26
2018-09-02T22:38:12.324Z,52.69
2018-09-02T22:40:41.064Z,52.57
2018-09-02T22:43:09.805Z,53.41
2018-09-02T22:45:38.817Z,53.13
2018-09-02T22:48:07.891Z,53.69
2018-09-02T22:50:36.551Z,54.24
2018-09-02T22:53:05.278Z,53.58
2018-09-02T22:55:34.038Z,54.27
2018-09-02T22:58:02.833Z,54.58
2018-09-02T23:00:31.650Z,54.14
2018-09-02T23:03:00.323Z,54.11
2018-09-02T23:05:28.990Z,54.69
2018-09-02T23:07:57.700Z,54.68
2018-09-02T23:10:26.442Z,54.79
2018-09-02T23:12:55.281Z,54.75
2018-09-02T23:15:24.162Z,55.22
2018-09-02T23:17:52.926Z,54.27
2018-09-02T23:20:21.786Z,54.48
2018-09-02T23:22:50.687Z,54.71
2018-09-02T23:25:19.603Z,55.93
2018-09-02T23:27:48.420Z,55.51
2018-09-02T23:30:17.191Z,55.19
2018-09-02T23:32:45.902Z,55.62
2018-09-02T23:35:14.582Z,55.93
2018-09-02T23:37:43.271Z,55.71
2018-09-02T23:40:12.005Z,55.40
2018-09-02T23:42:40.716Z,55.91
2018-09-02T23:45:09.421Z,55.66
2018-09-02T23:47:38.275Z,55.60
2018-09-02T23:50:07.170Z,55.69
2018-09-02T23:52:36.011Z,56.87
2018-09-02T23:55:04.947Z,55.70
2018-09-02T23:57:33.592Z,55.85
